Time;durP1;ratioP1;P1;durP2;ratioP2;P2;SDS_P1;SDS_P2;PMS_P1;PMS_P2;Temp;Humidity;BMP_temperature;BMP_pressure;BME280_temperature;BME280_humidity;BME280_pressure;Samples;Min_cycle;Max_cycle;Signal;HPM_P1;HPM_P2
2021/04/30 00:01:07;;;;;;;16.80;15.77;;;7.40;99.90;;;;;;5093197;28;20446;-67
2021/04/30 00:03:34;;;;;;;17.70;16.50;;;7.40;99.90;;;;;;5093326;28;20438;-67
2021/04/30 00:06:01;;;;;;;18.00;16.90;;;7.40;99.90;;;;;;5093054;28;20467;-67
2021/04/30 00:08:27;;;;;;;18.03;16.53;;;7.40;99.90;;;;;;5092973;28;20808;-67
2021/04/30 00:10:54;;;;;;;18.43;16.50;;;7.40;99.90;;;;;;5093044;28;20442;-67
2021/04/30 00:13:20;;;;;;;16.60;15.50;;;7.40;99.90;;;;;;5093114;28;20439;-67
2021/04/30 00:15:47;;;;;;;17.03;16.00;;;7.40;99.90;;;;;;5093142;28;20967;-69
2021/04/30 00:18:13;;;;;;;33.37;18.80;;;7.40;99.90;;;;;;5094495;28;20445;-69
2021/04/30 00:20:46;;;;;;;17.20;16.20;;;7.50;99.90;;;;;;5094103;28;20812;-69
2021/04/30 00:23:13;;;;;;;17.73;16.20;;;7.40;99.90;;;;;;5094629;28;20473;-69
2021/04/30 00:25:39;;;;;;;17.90;16.70;;;7.40;99.90;;;;;;5094421;28;20473;-69
2021/04/30 00:28:06;;;;;;;19.20;17.60;;;7.40;99.90;;;;;;5093862;28;20487;-69
2021/04/30 00:30:33;;;;;;;17.50;16.30;;;7.40;99.90;;;;;;5094127;28;20442;-69
2021/04/30 00:32:59;;;;;;;16.83;15.53;;;7.40;99.90;;;;;;5094102;28;20458;-67
2021/04/30 00:35:25;;;;;;;19.50;18.07;;;7.40;99.90;;;;;;5093740;28;20887;-69
2021/04/30 00:37:51;;;;;;;17.00;15.67;;;7.40;99.90;;;;;;5093819;28;20438;-68
2021/04/30 00:40:18;;;;;;;16.00;14.80;;;7.40;99.90;;;;;;5093743;28;20814;-68
2021/04/30 00:42:45;;;;;;;16.97;15.77;;;7.40;99.90;;;;;;5093479;28;20439;-70
2021/04/30 00:45:17;;;;;;;16.37;15.47;;;7.40;99.90;;;;;;5093301;28;21192;-70
2021/04/30 00:47:43;;;;;;;16.77;15.73;;;7.40;99.90;;;;;;5093279;28;20518;-70
2021/04/30 00:50:11;;;;;;;16.43;15.17;;;7.40;99.90;;;;;;5093532;28;20453;-69
2021/04/30 00:52:38;;;;;;;17.50;16.40;;;7.40;99.90;;;;;;5094112;28;20453;-70
2021/04/30 00:55:06;;;;;;;17.60;16.30;;;7.50;99.90;;;;;;5094779;28;20466;-70
2021/04/30 00:57:35;;;;;;;18.30;16.63;;;7.40;99.90;;;;;;5095977;28;20602;-70
2021/04/30 01:00:01;;;;;;;17.97;16.23;;;7.40;99.90;;;;;;5093982;28;20454;-70
2021/04/30 01:02:28;;;;;;;17.53;15.87;;;7.40;99.90;;;;;;5093651;28;20449;-70
2021/04/30 01:04:54;;;;;;;19.00;17.40;;;7.40;99.90;;;;;;5093651;28;21186;-70
2021/04/30 01:07:20;;;;;;;17.97;16.60;;;7.40;99.90;;;;;;5093000;28;20450;-68
2021/04/30 01:09:46;;;;;;;17.80;16.33;;;7.30;99.90;;;;;;5091679;28;20486;-68
2021/04/30 01:12:14;;;;;;;16.37;15.37;;;7.30;99.90;;;;;;5091921;28;20449;-68
2021/04/30 01:14:41;;;;;;;17.80;16.50;;;7.30;99.90;;;;;;5091745;28;21057;-68
2021/04/30 01:17:07;;;;;;;18.20;16.93;;;7.30;99.90;;;;;;5091965;28;20450;-68
2021/04/30 01:19:34;;;;;;;17.10;15.60;;;7.30;99.90;;;;;;5091610;28;20439;-67
2021/04/30 01:22:01;;;;;;;17.43;15.93;;;7.40;99.90;;;;;;5091267;28;20442;-66
2021/04/30 01:24:28;;;;;;;17.80;16.37;;;7.40;99.90;;;;;;5091561;28;20504;-67
2021/04/30 01:26:54;;;;;;;17.50;16.00;;;7.30;99.90;;;;;;5091793;28;20442;-66
2021/04/30 01:29:22;;;;;;;16.07;15.00;;;7.30;99.90;;;;;;5091410;28;20477;-66
2021/04/30 01:31:49;;;;;;;16.90;15.60;;;7.30;99.90;;;;;;5091559;28;20442;-67
2021/04/30 01:34:15;;;;;;;16.20;15.00;;;7.20;99.90;;;;;;5091087;28;20495;-67
2021/04/30 01:36:42;;;;;;;17.57;16.03;;;7.20;99.90;;;;;;5091611;28;20932;-67
2021/04/30 01:39:12;;;;;;;17.70;16.30;;;7.20;99.90;;;;;;5091375;28;20442;-67
2021/04/30 01:41:40;;;;;;;17.80;16.17;;;7.20;99.90;;;;;;5091794;28;20529;-67
2021/04/30 01:44:08;;;;;;;17.77;16.47;;;7.20;99.90;;;;;;5091420;28;20956;-67
2021/04/30 01:46:34;;;;;;;19.07;17.63;;;7.20;99.90;;;;;;5091488;28;20445;-67
2021/04/30 01:49:00;;;;;;;18.83;16.97;;;7.10;99.90;;;;;;5091178;28;20489;-67
2021/04/30 01:51:27;;;;;;;17.53;15.87;;;7.20;99.90;;;;;;5091413;28;20499;-67
2021/04/30 01:53:53;;;;;;;19.33;15.93;;;7.20;99.90;;;;;;5091395;28;20520;-67
2021/04/30 01:56:20;;;;;;;16.40;15.40;;;7.10;99.90;;;;;;5091551;28;20535;-67
2021/04/30 01:58:47;;;;;;;18.60;17.10;;;7.10;99.90;;;;;;5091321;28;20438;-66
2021/04/30 02:01:13;;;;;;;17.80;16.40;;;7.00;99.90;;;;;;5091509;28;20447;-67
2021/04/30 02:03:40;;;;;;;16.80;15.67;;;7.10;99.90;;;;;;5091499;28;20807;-67
2021/04/30 02:06:06;;;;;;;19.00;17.50;;;7.10;99.90;;;;;;5091334;28;20466;-67
2021/04/30 02:08:32;;;;;;;16.97;15.97;;;7.10;99.90;;;;;;5091107;28;20477;-67
2021/04/30 02:10:59;;;;;;;18.30;17.00;;;7.10;99.90;;;;;;5091341;28;20944;-67
2021/04/30 02:13:26;;;;;;;17.90;16.80;;;7.10;99.90;;;;;;5091426;28;20476;-67
2021/04/30 02:15:54;;;;;;;18.10;16.70;;;7.10;99.90;;;;;;5091244;28;20990;-67
2021/04/30 02:18:21;;;;;;;18.67;17.37;;;7.10;99.90;;;;;;5091183;28;20924;-67
2021/04/30 02:20:47;;;;;;;17.30;16.20;;;7.00;99.90;;;;;;5091316;28;20566;-67
2021/04/30 02:23:14;;;;;;;18.77;17.13;;;7.00;99.90;;;;;;5091381;28;20445;-68
2021/04/30 02:25:41;;;;;;;17.53;16.33;;;7.00;99.90;;;;;;5091218;28;20469;-67
2021/04/30 02:28:08;;;;;;;16.33;15.23;;;7.00;99.90;;;;;;5091165;28;20835;-67
2021/04/30 02:30:37;;;;;;;16.77;15.57;;;7.10;99.90;;;;;;5091321;28;20819;-67
2021/04/30 02:33:05;;;;;;;18.60;17.30;;;7.00;99.90;;;;;;5091159;28;20449;-67
2021/04/30 02:35:33;;;;;;;18.77;17.27;;;7.00;99.90;;;;;;5094611;28;21006;-67
2021/04/30 02:38:00;;;;;;;20.37;18.53;;;7.00;99.90;;;;;;5094646;28;20888;-67
2021/04/30 02:40:28;;;;;;;19.60;17.90;;;7.00;99.90;;;;;;5094702;28;20503;-67
2021/04/30 02:42:57;;;;;;;18.90;17.60;;;6.90;99.90;;;;;;5094695;28;20438;-66
2021/04/30 02:45:24;;;;;;;19.30;17.77;;;6.90;99.90;;;;;;5094612;28;20467;-67
2021/04/30 02:47:52;;;;;;;20.10;18.70;;;6.90;99.90;;;;;;5094239;28;20445;-68
2021/04/30 02:50:21;;;;;;;22.20;18.40;;;6.90;99.90;;;;;;5094541;28;20446;-67
2021/04/30 02:52:48;;;;;;;20.23;18.33;;;6.90;99.90;;;;;;5094547;28;20957;-67
2021/04/30 02:55:16;;;;;;;19.60;18.17;;;6.90;99.90;;;;;;5094382;28;20462;-67
2021/04/30 02:57:42;;;;;;;20.60;19.20;;;6.90;99.90;;;;;;5094303;28;20500;-67
2021/04/30 03:00:11;;;;;;;20.73;19.23;;;6.90;99.90;;;;;;5094225;28;20492;-67
2021/04/30 03:02:37;;;;;;;21.67;19.97;;;7.00;99.90;;;;;;5094275;28;20500;-67
2021/04/30 03:05:05;;;;;;;20.90;19.30;;;7.00;99.90;;;;;;5094139;28;20519;-67
2021/04/30 03:07:31;;;;;;;19.00;17.70;;;7.00;99.90;;;;;;5094270;28;20439;-67
2021/04/30 03:09:58;;;;;;;20.77;19.40;;;7.10;99.90;;;;;;5093995;28;20839;-67
2021/04/30 03:12:24;;;;;;;20.40;18.90;;;7.00;99.90;;;;;;5094315;28;20443;-67
2021/04/30 03:14:50;;;;;;;21.10;19.70;;;7.00;99.90;;;;;;5094133;28;20458;-67
2021/04/30 03:17:16;;;;;;;21.53;19.80;;;7.00;99.90;;;;;;5093968;28;20438;-67
2021/04/30 03:19:43;;;;;;;22.13;20.53;;;7.00;99.90;;;;;;5093935;28;20446;-67
2021/04/30 03:22:10;;;;;;;21.60;19.90;;;6.90;99.90;;;;;;5094018;28;20849;-67
2021/04/30 03:24:36;;;;;;;21.63;19.93;;;7.00;99.90;;;;;;5093787;28;20473;-67
2021/04/30 03:27:02;;;;;;;22.57;20.90;;;6.90;99.90;;;;;;5108313;22;20486;-65
2021/04/30 03:29:28;;;;;;;22.70;20.47;;;6.90;99.90;;;;;;5065332;28;20478;-66
2021/04/30 03:31:54;;;;;;;22.40;20.50;;;7.00;99.90;;;;;;5073752;28;20959;-65
2021/04/30 03:34:21;;;;;;;24.03;22.20;;;7.00;99.90;;;;;;5073804;28;20443;-65
2021/04/30 03:36:47;;;;;;;21.93;20.23;;;6.90;99.90;;;;;;5073602;28;20459;-67
2021/04/30 03:39:14;;;;;;;23.07;21.17;;;6.90;99.90;;;;;;5073709;28;20439;-65
2021/04/30 03:41:40;;;;;;;23.53;21.70;;;6.90;99.90;;;;;;5073575;28;20785;-64
2021/04/30 03:44:06;;;;;;;23.90;22.00;;;7.00;99.90;;;;;;5073311;28;20811;-63
2021/04/30 03:46:33;;;;;;;32.50;23.30;;;7.00;99.90;;;;;;5073356;28;20974;-64
2021/04/30 03:48:59;;;;;;;24.97;22.77;;;6.90;99.90;;;;;;5073293;28;21045;-64
2021/04/30 03:51:25;;;;;;;23.27;21.37;;;6.80;99.90;;;;;;5073297;28;20443;-66
2021/04/30 03:53:51;;;;;;;25.93;23.83;;;6.70;99.90;;;;;;5073491;28;20443;-64
2021/04/30 03:56:18;;;;;;;29.17;26.47;;;6.80;99.90;;;;;;5073253;28;20446;-65
2021/04/30 03:58:44;;;;;;;28.10;25.57;;;6.80;99.90;;;;;;5073260;28;20435;-66
2021/04/30 04:01:10;;;;;;;26.70;24.37;;;6.80;99.90;;;;;;5073051;28;20440;-65
2021/04/30 04:03:37;;;;;;;27.07;24.60;;;6.80;99.90;;;;;;5073410;28;20500;-64
2021/04/30 04:06:03;;;;;;;28.17;25.27;;;6.80;99.90;;;;;;5073238;28;20454;-66
2021/04/30 04:08:31;;;;;;;29.33;26.40;;;6.80;99.90;;;;;;5073081;28;20487;-65
2021/04/30 04:10:57;;;;;;;29.77;27.13;;;6.70;99.90;;;;;;5073161;28;20451;-63
2021/04/30 04:13:26;;;;;;;29.50;26.97;;;6.70;99.90;;;;;;5073017;28;20443;-64
2021/04/30 04:15:54;;;;;;;34.23;30.80;;;6.70;99.90;;;;;;5072875;28;20439;-65
2021/04/30 04:18:20;;;;;;;32.23;29.27;;;6.80;99.90;;;;;;5072766;28;20853;-65
2021/04/30 04:20:47;;;;;;;32.53;29.47;;;6.80;99.90;;;;;;5072824;28;20862;-65
2021/04/30 04:23:13;;;;;;;33.33;30.10;;;6.80;99.90;;;;;;5072723;28;20439;-66
2021/04/30 04:25:40;;;;;;;32.57;29.50;;;6.80;99.90;;;;;;5072690;28;20936;-65
2021/04/30 04:28:07;;;;;;;33.73;30.50;;;6.90;99.90;;;;;;5072392;28;20487;-65
2021/04/30 04:30:35;;;;;;;32.43;29.57;;;6.80;99.90;;;;;;5072432;28;20447;-65
2021/04/30 04:33:01;;;;;;;34.57;31.43;;;6.90;99.90;;;;;;5072692;28;20450;-65
2021/04/30 04:35:28;;;;;;;34.80;31.47;;;7.00;99.90;;;;;;5072772;28;20451;-65
2021/04/30 04:37:54;;;;;;;37.30;29.13;;;7.00;99.90;;;;;;5072327;28;20471;-65
2021/04/30 04:40:22;;;;;;;33.33;30.40;;;7.10;99.90;;;;;;5072423;28;20450;-64
2021/04/30 04:42:48;;;;;;;34.90;31.90;;;7.10;99.90;;;;;;5072553;28;20450;-64
2021/04/30 04:45:16;;;;;;;37.47;33.80;;;7.00;99.90;;;;;;5072383;28;20482;-65
2021/04/30 04:47:43;;;;;;;35.17;31.67;;;7.00;99.90;;;;;;5072244;28;20971;-63
2021/04/30 04:50:11;;;;;;;34.77;31.63;;;7.10;99.90;;;;;;5072225;28;20933;-64
2021/04/30 04:52:38;;;;;;;36.43;32.90;;;7.00;99.90;;;;;;5072256;28;20442;-64
2021/04/30 04:55:05;;;;;;;35.37;32.10;;;7.10;99.90;;;;;;5072266;28;20443;-66
2021/04/30 04:57:31;;;;;;;38.17;34.73;;;6.90;99.90;;;;;;5071497;28;20463;-67
2021/04/30 04:59:58;;;;;;;34.87;31.83;;;7.00;99.90;;;;;;5071727;28;20812;-67
2021/04/30 05:02:24;;;;;;;37.83;33.80;;;7.00;99.90;;;;;;5072014;28;20955;-65
2021/04/30 05:04:51;;;;;;;32.47;29.70;;;7.00;99.90;;;;;;5071925;28;20443;-66
2021/04/30 05:07:19;;;;;;;35.90;32.87;;;7.10;99.90;;;;;;5072154;28;20988;-69
2021/04/30 05:09:45;;;;;;;37.03;33.43;;;7.10;99.90;;;;;;5071594;28;20475;-66
2021/04/30 05:12:11;;;;;;;39.73;36.13;;;7.00;99.90;;;;;;5072081;28;20450;-69
2021/04/30 05:14:37;;;;;;;40.03;36.30;;;7.10;99.90;;;;;;5071031;28;20443;-68
2021/04/30 05:17:04;;;;;;;39.37;35.27;;;7.00;99.90;;;;;;5070605;28;20489;-65
2021/04/30 05:19:30;;;;;;;39.17;35.30;;;7.10;99.90;;;;;;5070403;28;20439;-67
2021/04/30 05:21:58;;;;;;;38.17;34.70;;;7.10;99.90;;;;;;5070687;28;20443;-67
2021/04/30 05:24:24;;;;;;;37.80;34.20;;;7.10;99.90;;;;;;5070494;28;20555;-67
2021/04/30 05:26:51;;;;;;;40.33;36.43;;;7.10;99.90;;;;;;5070582;28;20506;-68
2021/04/30 05:29:18;;;;;;;39.60;35.80;;;7.10;99.90;;;;;;5071399;28;20482;-68
2021/04/30 05:31:45;;;;;;;42.10;37.93;;;7.10;99.90;;;;;;5071474;28;20987;-67
2021/04/30 05:34:11;;;;;;;38.20;34.83;;;7.10;99.90;;;;;;5071363;28;20443;-67
2021/04/30 05:36:37;;;;;;;39.97;36.27;;;7.10;99.90;;;;;;5071386;28;20470;-68
2021/04/30 05:39:05;;;;;;;40.10;36.70;;;7.10;99.90;;;;;;5071225;28;20900;-68
2021/04/30 05:41:31;;;;;;;38.30;34.63;;;7.20;99.90;;;;;;5071333;28;20603;-68
2021/04/30 05:43:58;;;;;;;38.57;35.00;;;7.20;99.90;;;;;;5071372;28;20506;-67
2021/04/30 05:46:24;;;;;;;33.00;30.03;;;7.30;99.90;;;;;;5071208;28;20463;-67
2021/04/30 05:48:50;;;;;;;32.87;29.70;;;7.30;99.90;;;;;;5070942;28;20502;-67
2021/04/30 05:51:16;;;;;;;33.77;30.70;;;7.30;99.90;;;;;;5071146;28;20470;-68
2021/04/30 05:53:42;;;;;;;34.77;31.50;;;7.30;99.90;;;;;;5071234;28;20463;-67
2021/04/30 05:56:09;;;;;;;33.90;30.57;;;7.30;99.90;;;;;;5071221;28;20866;-68
2021/04/30 05:58:36;;;;;;;35.87;32.20;;;7.20;99.90;;;;;;5071162;28;20439;-67
2021/04/30 06:01:02;;;;;;;37.50;34.20;;;7.30;99.90;;;;;;5071355;28;20454;-67
2021/04/30 06:03:28;;;;;;;34.77;31.37;;;7.20;99.90;;;;;;5071114;28;20500;-67
2021/04/30 06:05:54;;;;;;;32.70;30.00;;;7.10;99.90;;;;;;5070867;28;20528;-67
2021/04/30 06:08:20;;;;;;;34.20;31.23;;;7.10;99.90;;;;;;5072744;28;20509;-68
2021/04/30 06:10:46;;;;;;;35.20;32.17;;;7.10;99.90;;;;;;5075013;28;20439;-68
2021/04/30 06:13:14;;;;;;;34.70;31.83;;;7.10;99.90;;;;;;5074227;28;20439;-67
2021/04/30 06:15:40;;;;;;;36.20;32.80;;;7.20;99.90;;;;;;5075159;28;20447;-68
2021/04/30 06:18:06;;;;;;;35.47;31.93;;;7.10;99.90;;;;;;5074748;28;20463;-66
2021/04/30 06:20:32;;;;;;;36.03;32.83;;;7.20;99.90;;;;;;5074863;28;20451;-67
2021/04/30 06:22:58;;;;;;;34.10;31.17;;;7.10;99.90;;;;;;5074870;28;20443;-67
2021/04/30 06:25:24;;;;;;;34.77;31.30;;;7.10;99.90;;;;;;5074857;28;20846;-67
2021/04/30 06:27:51;;;;;;;34.80;31.23;;;7.10;99.90;;;;;;5074243;28;20972;-67
2021/04/30 06:30:18;;;;;;;35.07;31.60;;;7.20;99.90;;;;;;5074611;28;20478;-66
2021/04/30 06:32:44;;;;;;;36.37;33.10;;;7.20;99.90;;;;;;5074584;28;20678;-68
2021/04/30 06:35:11;;;;;;;35.27;32.40;;;7.30;99.90;;;;;;5074678;28;20447;-68
2021/04/30 06:37:38;;;;;;;35.23;31.60;;;7.30;99.90;;;;;;5074598;28;20486;-66
2021/04/30 06:40:06;;;;;;;36.07;32.97;;;7.30;99.90;;;;;;5074374;28;20447;-67
2021/04/30 06:42:32;;;;;;;36.67;33.67;;;7.30;99.90;;;;;;5074441;28;20937;-67
2021/04/30 06:44:59;;;;;;;33.37;29.67;;;7.40;99.90;;;;;;5074548;28;20755;-68
2021/04/30 06:47:26;;;;;;;33.93;30.63;;;7.50;99.90;;;;;;5074261;28;21031;-68
2021/04/30 06:49:52;;;;;;;34.90;31.60;;;7.50;99.90;;;;;;5073952;28;20482;-67
2021/04/30 06:52:18;;;;;;;35.43;31.87;;;7.60;99.90;;;;;;5074353;28;20450;-68
2021/04/30 06:54:44;;;;;;;36.10;32.90;;;7.70;99.90;;;;;;5074186;28;20443;-68
2021/04/30 06:57:11;;;;;;;34.87;31.57;;;7.80;99.90;;;;;;5074260;28;20529;-66
2021/04/30 06:59:37;;;;;;;34.03;30.90;;;7.90;99.90;;;;;;5073947;28;20920;-67
2021/04/30 07:02:04;;;;;;;35.00;31.60;;;8.00;99.90;;;;;;5074197;28;20450;-68
2021/04/30 07:04:32;;;;;;;34.17;30.80;;;8.00;99.90;;;;;;5074165;28;20439;-67
2021/04/30 07:06:58;;;;;;;34.20;31.20;;;8.10;99.90;;;;;;5074085;28;20486;-66
2021/04/30 07:09:24;;;;;;;36.23;32.90;;;8.20;99.90;;;;;;5073601;28;20544;-67
2021/04/30 07:11:50;;;;;;;36.27;32.40;;;8.20;99.90;;;;;;5073944;28;20439;-66
2021/04/30 07:14:16;;;;;;;33.80;30.90;;;8.10;99.90;;;;;;5074026;28;20450;-66
2021/04/30 07:16:42;;;;;;;32.77;29.83;;;8.20;99.90;;;;;;5073890;28;20530;-67
2021/04/30 07:19:09;;;;;;;34.30;31.10;;;8.30;99.90;;;;;;5073115;28;20436;-67
2021/04/30 07:21:36;;;;;;;33.73;30.97;;;8.40;99.90;;;;;;5073758;28;20470;-67
2021/04/30 07:24:02;;;;;;;34.20;31.10;;;8.60;99.90;;;;;;5073929;28;20913;-67
2021/04/30 07:26:29;;;;;;;34.17;31.37;;;8.70;99.90;;;;;;5073488;28;20471;-66
2021/04/30 07:28:55;;;;;;;33.37;30.50;;;8.70;99.90;;;;;;5073576;28;20604;-67
2021/04/30 07:31:21;;;;;;;35.23;31.70;;;8.80;99.90;;;;;;5073622;28;20522;-67
2021/04/30 07:33:47;;;;;;;34.67;31.40;;;8.80;99.90;;;;;;5073505;28;20493;-67
2021/04/30 07:36:14;;;;;;;37.10;33.63;;;8.90;99.90;;;;;;5073446;28;20439;-68
2021/04/30 07:38:41;;;;;;;35.20;32.37;;;8.90;99.90;;;;;;5073308;28;20443;-68
2021/04/30 07:41:08;;;;;;;35.73;32.67;;;8.90;99.90;;;;;;5073353;28;20447;-67
2021/04/30 07:43:34;;;;;;;35.17;31.83;;;8.70;99.90;;;;;;5073380;28;20443;-68
2021/04/30 07:46:01;;;;;;;34.63;31.47;;;8.80;99.90;;;;;;5073199;28;20446;-67
2021/04/30 07:48:27;;;;;;;36.20;33.00;;;8.80;99.90;;;;;;5072981;28;20483;-68
2021/04/30 07:50:54;;;;;;;37.80;33.90;;;8.80;99.90;;;;;;5073180;28;20447;-67
2021/04/30 07:53:20;;;;;;;35.53;32.33;;;8.80;99.90;;;;;;5073165;28;20504;-68
2021/04/30 07:55:47;;;;;;;33.57;30.37;;;9.10;99.90;;;;;;5073067;28;20458;-67
2021/04/30 07:58:14;;;;;;;33.17;30.37;;;9.30;99.90;;;;;;5072823;28;20467;-66
2021/04/30 08:00:41;;;;;;;32.73;30.13;;;9.40;99.90;;;;;;5073100;28;20952;-67
2021/04/30 08:03:07;;;;;;;34.83;31.97;;;9.40;99.90;;;;;;5072806;28;20447;-67
2021/04/30 08:05:33;;;;;;;36.67;33.57;;;9.30;99.90;;;;;;5072973;28;20443;-67
2021/04/30 08:08:04;;;;;;;36.07;33.17;;;9.50;99.90;;;;;;5072567;28;20463;-68
2021/04/30 08:10:31;;;;;;;37.10;33.70;;;9.60;99.90;;;;;;5072907;28;20431;-68
2021/04/30 08:12:58;;;;;;;35.60;32.60;;;9.60;99.90;;;;;;5072739;28;20493;-67
2021/04/30 08:15:24;;;;;;;35.13;32.10;;;9.80;99.90;;;;;;5072758;28;20446;-67
2021/04/30 08:17:50;;;;;;;35.67;32.10;;;9.60;99.90;;;;;;5072545;28;20525;-66
2021/04/30 08:20:17;;;;;;;37.70;34.20;;;9.60;99.90;;;;;;5072771;28;20500;-67
2021/04/30 08:22:43;;;;;;;33.67;30.90;;;9.60;99.90;;;;;;5072746;28;20439;-66
2021/04/30 08:25:10;;;;;;;37.67;34.30;;;9.50;99.90;;;;;;5072570;28;20442;-66
2021/04/30 08:27:37;;;;;;;34.47;31.53;;;9.50;99.90;;;;;;5072359;28;20500;-68
2021/04/30 08:30:05;;;;;;;34.23;31.30;;;9.70;99.90;;;;;;5072178;28;20605;-67
2021/04/30 08:32:31;;;;;;;35.63;32.20;;;9.70;99.90;;;;;;5071298;28;20443;-67
2021/04/30 08:34:58;;;;;;;34.73;31.70;;;9.60;99.90;;;;;;5072375;28;20542;-67
2021/04/30 08:37:24;;;;;;;37.73;34.50;;;9.60;99.90;;;;;;5072119;28;20817;-67
2021/04/30 08:39:50;;;;;;;39.50;35.93;;;9.60;99.90;;;;;;5072056;28;20459;-68
2021/04/30 08:42:18;;;;;;;36.53;33.23;;;9.60;99.90;;;;;;5072238;28;20447;-68
2021/04/30 08:44:45;;;;;;;35.40;32.50;;;9.40;99.90;;;;;;5072175;28;20450;-67
2021/04/30 08:47:17;;;;;;;36.37;33.07;;;9.30;99.90;;;;;;5072072;28;20463;-67
2021/04/30 08:49:43;;;;;;;36.50;33.40;;;9.40;99.90;;;;;;5071851;28;20482;-66
2021/04/30 08:52:10;;;;;;;40.63;36.87;;;9.60;99.90;;;;;;5071961;28;20925;-67
2021/04/30 08:54:37;;;;;;;35.67;32.57;;;9.70;99.90;;;;;;5071869;28;21016;-67
2021/04/30 08:57:06;;;;;;;39.60;36.17;;;9.80;99.90;;;;;;5071941;28;21004;-67
2021/04/30 08:59:33;;;;;;;37.03;33.73;;;9.70;99.90;;;;;;5071682;28;20992;-66
2021/04/30 09:01:59;;;;;;;40.00;35.93;;;9.50;99.90;;;;;;5071918;28;20478;-66
2021/04/30 09:04:26;;;;;;;37.77;34.67;;;9.60;99.90;;;;;;5071879;28;20447;-68
2021/04/30 09:06:53;;;;;;;39.60;36.23;;;9.70;99.90;;;;;;5071842;28;20517;-67
2021/04/30 09:09:20;;;;;;;39.53;35.93;;;9.80;99.90;;;;;;5071473;28;20482;-67
2021/04/30 09:11:51;;;;;;;39.00;35.53;;;9.70;99.90;;;;;;5071763;28;20443;-67
2021/04/30 09:14:29;;;;;;;37.97;34.77;;;9.70;99.90;;;;;;5071737;28;20443;-66
2021/04/30 09:17:05;;;;;;;38.40;35.23;;;9.70;99.90;;;;;;5071712;28;20463;-68
2021/04/30 09:19:35;;;;;;;41.73;38.00;;;9.60;99.90;;;;;;5071552;28;20500;-67
2021/04/30 09:22:03;;;;;;;39.27;35.60;;;9.70;99.90;;;;;;5071762;28;20447;-66
2021/04/30 09:24:29;;;;;;;36.90;33.63;;;9.80;99.90;;;;;;5071467;28;20447;-67
2021/04/30 09:26:57;;;;;;;39.53;35.53;;;9.90;99.90;;;;;;5096214;22;20499;-67
2021/04/30 09:29:24;;;;;;;39.73;36.23;;;10.00;99.90;;;;;;5080628;28;20479;-66
2021/04/30 09:31:50;;;;;;;39.63;36.20;;;10.10;99.90;;;;;;5091515;28;20446;-67
2021/04/30 09:34:24;;;;;;;36.93;33.87;;;10.20;99.90;;;;;;5091475;28;20485;-65
2021/04/30 09:37:08;;;;;;;36.47;33.40;;;10.30;99.90;;;;;;5091426;28;20548;-66
2021/04/30 09:39:52;;;;;;;37.47;34.07;;;10.40;99.90;;;;;;5091842;28;20951;-69
2021/04/30 09:42:20;;;;;;;36.20;33.30;;;10.60;99.90;;;;;;5091555;28;20442;-68
2021/04/30 09:44:48;;;;;;;37.07;34.07;;;10.80;99.90;;;;;;5091619;28;20450;-68
2021/04/30 09:47:23;;;;;;;38.63;35.10;;;10.80;99.90;;;;;;5091650;28;20458;-65
2021/04/30 09:49:50;;;;;;;37.70;34.40;;;11.00;99.90;;;;;;5091020;28;20477;-65
2021/04/30 09:52:18;;;;;;;37.30;34.30;;;11.20;99.90;;;;;;5091418;28;20446;-68
2021/04/30 09:54:46;;;;;;;35.50;32.70;;;11.50;99.90;;;;;;5091571;28;20442;-68
2021/04/30 09:57:16;;;;;;;35.87;32.77;;;11.70;99.90;;;;;;5091633;28;20458;-66
2021/04/30 09:59:43;;;;;;;36.63;33.40;;;11.70;99.90;;;;;;5091104;28;20443;-65
2021/04/30 10:02:12;;;;;;;36.30;33.47;;;11.90;99.90;;;;;;5091084;28;20441;-66
2021/04/30 10:04:42;;;;;;;36.07;33.10;;;11.70;99.90;;;;;;5091677;28;20446;-67
2021/04/30 10:07:08;;;;;;;37.10;34.00;;;11.70;99.90;;;;;;5091136;28;20554;-66
2021/04/30 10:09:37;;;;;;;36.30;32.67;;;11.60;99.90;;;;;;5090761;28;20489;-66
2021/04/30 10:12:20;;;;;;;37.87;35.00;;;11.40;99.90;;;;;;5091075;28;20454;-66
2021/04/30 10:14:47;;;;;;;36.40;33.47;;;11.40;99.90;;;;;;5090985;28;20905;-66
2021/04/30 10:17:14;;;;;;;38.47;35.53;;;11.40;99.90;;;;;;5090832;28;20474;-66
2021/04/30 10:19:41;;;;;;;34.63;31.70;;;11.50;99.90;;;;;;5090807;28;20529;-66
2021/04/30 10:22:12;;;;;;;35.93;33.00;;;11.60;99.90;;;;;;5090888;28;21035;-67
2021/04/30 10:24:41;;;;;;;35.77;32.87;;;11.90;99.90;;;;;;5090859;28;20496;-66
2021/04/30 10:27:08;;;;;;;34.73;31.97;;;12.10;99.90;;;;;;5090634;28;20493;-68
2021/04/30 10:29:35;;;;;;;35.83;32.83;;;12.20;99.90;;;;;;5090914;28;20894;-68
2021/04/30 10:32:03;;;;;;;34.80;32.30;;;12.30;99.90;;;;;;5091279;28;20446;-68
2021/04/30 10:34:37;;;;;;;35.60;32.70;;;12.70;99.90;;;;;;5091048;28;20446;-68
2021/04/30 10:37:05;;;;;;;35.27;32.40;;;13.10;99.90;;;;;;5090868;28;20470;-68
2021/04/30 10:39:34;;;;;;;37.70;34.27;;;13.10;99.90;;;;;;5090659;28;20529;-69
2021/04/30 10:42:09;;;;;;;37.17;33.83;;;13.00;99.50;;;;;;5090869;28;20452;-67
2021/04/30 10:44:41;;;;;;;35.80;33.30;;;13.40;99.00;;;;;;5090652;28;20449;-67
2021/04/30 10:47:26;;;;;;;35.13;32.03;;;13.60;98.20;;;;;;5090567;28;20533;-67
2021/04/30 10:50:17;;;;;;;34.97;32.20;;;13.70;96.80;;;;;;5090254;28;20484;-67
2021/04/30 10:52:44;;;;;;;35.90;32.80;;;14.10;95.80;;;;;;5090710;28;20584;-67
2021/04/30 10:55:12;;;;;;;38.60;35.30;;;14.50;95.30;;;;;;5092193;28;20449;-66
2021/04/30 10:57:50;;;;;;;35.90;33.20;;;14.80;94.40;;;;;;5094326;28;20520;-67
2021/04/30 11:00:18;;;;;;;37.50;33.13;;;14.90;93.40;;;;;;5094010;28;20439;-67
2021/04/30 11:02:44;;;;;;;35.00;32.20;;;15.60;92.20;;;;;;5094415;28;20450;-68
2021/04/30 11:05:13;;;;;;;36.30;33.23;;;16.10;90.50;;;;;;5094735;28;20899;-69
2021/04/30 11:07:41;;;;;;;36.47;33.70;;;17.30;87.40;;;;;;5094569;28;20466;-67
2021/04/30 11:10:43;;;;;;;35.57;32.97;;;18.90;83.30;;;;;;5093766;28;20994;-67
2021/04/30 11:13:15;;;;;;;36.53;34.17;;;19.60;73.80;;;;;;5089242;28;20445;-69
2021/04/30 11:15:56;;;;;;;38.40;35.50;;;19.20;63.50;;;;;;5094383;28;20615;-69
2021/04/30 11:18:25;;;;;;;36.93;34.13;;;18.20;62.70;;;;;;5093967;28;20462;-68
2021/04/30 11:21:03;;;;;;;40.03;36.87;;;17.80;60.20;;;;;;5094102;28;21036;-67
2021/04/30 11:23:37;;;;;;;39.70;36.50;;;16.80;59.50;;;;;;5094659;28;20449;-68
2021/04/30 11:26:06;;;;;;;39.70;36.70;;;16.30;64.90;;;;;;5093962;28;20975;-65
2021/04/30 11:29:08;;;;;;;39.60;36.43;;;15.50;65.00;;;;;;5093223;28;20477;-66
2021/04/30 11:31:36;;;;;;;42.30;38.57;;;15.00;68.80;;;;;;5093578;28;20442;-65
2021/04/30 11:34:20;;;;;;;41.37;38.17;;;15.20;70.60;;;;;;5093670;28;20446;-67
2021/04/30 11:36:56;;;;;;;39.57;36.77;;;15.10;68.60;;;;;;5093350;28;20466;-66
2021/04/30 11:39:29;;;;;;;39.83;36.00;;;14.40;71.70;;;;;;5093403;28;20802;-66
2021/04/30 11:42:03;;;;;;;41.13;37.90;;;14.70;74.40;;;;;;5093425;28;20443;-65
2021/04/30 11:44:30;;;;;;;45.27;41.13;;;14.60;74.80;;;;;;5093639;28;20450;-68
2021/04/30 11:47:03;;;;;;;43.53;40.30;;;14.40;75.40;;;;;;5094465;28;20482;-68
2021/04/30 11:49:30;;;;;;;43.70;39.87;;;14.50;75.70;;;;;;5093969;28;20846;-68
2021/04/30 11:51:56;;;;;;;44.00;39.80;;;14.90;76.10;;;;;;5094236;28;20819;-68
2021/04/30 11:54:28;;;;;;;41.80;38.50;;;15.00;75.50;;;;;;5093991;28;20443;-66
2021/04/30 11:57:05;;;;;;;42.67;38.70;;;14.80;77.30;;;;;;5092967;28;20474;-67
2021/04/30 11:59:32;;;;;;;41.00;37.53;;;14.90;76.50;;;;;;5092996;28;20515;-67
2021/04/30 12:02:00;;;;;;;39.73;36.63;;;15.30;74.40;;;;;;5093886;28;20813;-69
2021/04/30 12:04:39;;;;;;;41.43;38.43;;;15.80;72.90;;;;;;5093907;28;20442;-68
2021/04/30 12:07:06;;;;;;;40.97;38.00;;;16.80;69.70;;;;;;5093520;28;20512;-67
2021/04/30 12:09:32;;;;;;;40.13;36.80;;;16.60;68.40;;;;;;5093048;28;20478;-69
2021/04/30 12:12:13;;;;;;;40.67;37.67;;;17.20;68.40;;;;;;5092927;28;20446;-69
2021/04/30 12:14:46;;;;;;;40.27;37.27;;;17.00;65.90;;;;;;5092759;28;20447;-67
2021/04/30 12:17:39;;;;;;;42.00;38.50;;;16.90;65.60;;;;;;5092758;28;20461;-67
2021/04/30 12:20:12;;;;;;;38.50;35.60;;;16.90;64.90;;;;;;5056369;28;20454;-66
2021/04/30 12:22:48;;;;;;;39.93;36.97;;;16.90;65.30;;;;;;5092514;28;20931;-66
2021/04/30 12:25:19;;;;;;;39.37;36.17;;;17.40;61.50;;;;;;5092772;28;20445;-66
2021/04/30 12:27:46;;;;;;;39.27;36.70;;;17.40;60.20;;;;;;5092428;28;20470;-69
2021/04/30 12:30:24;;;;;;;38.87;36.13;;;17.50;60.60;;;;;;5092388;28;20486;-66
2021/04/30 12:32:50;;;;;;;37.90;34.83;;;17.40;61.10;;;;;;5092382;28;20438;-69
2021/04/30 12:35:16;;;;;;;37.80;34.93;;;17.40;60.30;;;;;;5091964;28;20446;-68
2021/04/30 12:37:43;;;;;;;37.47;34.57;;;17.60;58.30;;;;;;5092035;28;20466;-65